createdAt,value
2019-03-20T00:00:52.157Z,4.40
2019-03-20T00:01:52.117Z,4.40
2019-03-20T00:02:52.103Z,4.40
2019-03-20T00:04:04.505Z,4.90
2019-03-20T00:04:52.084Z,4.50
2019-03-20T00:05:52.065Z,4.70
2019-03-20T00:06:52.071Z,4.60
2019-03-20T00:07:52.059Z,4.50
2019-03-20T00:08:52.044Z,4.30
2019-03-20T00:09:52.021Z,5.10
2019-03-20T00:10:52.011Z,4.60
2019-03-20T00:11:52.023Z,4.80
2019-03-20T00:12:51.990Z,5.20
2019-03-20T00:13:51.979Z,4.90
2019-03-20T00:14:51.971Z,4.60
2019-03-20T00:15:52.045Z,4.90
2019-03-20T00:16:51.966Z,5.10
2019-03-20T00:17:51.992Z,4.70
2019-03-20T00:18:51.928Z,4.60
2019-03-20T00:19:51.915Z,4.50
2019-03-20T00:20:51.912Z,4.90
2019-03-20T00:21:51.889Z,4.70
2019-03-20T00:22:51.880Z,5.30
2019-03-20T00:23:51.883Z,5.20
2019-03-20T00:24:51.863Z,5.00
2019-03-20T00:25:51.846Z,5.30
2019-03-20T00:26:51.850Z,4.50
2019-03-20T00:27:51.827Z,4.40
2019-03-20T00:28:51.836Z,4.80
2019-03-20T00:29:51.809Z,5.00
2019-03-20T00:30:52.668Z,4.90
2019-03-20T00:31:51.785Z,5.10
2019-03-20T00:32:51.768Z,5.10
2019-03-20T00:33:51.762Z,4.60
2019-03-20T00:35:05.723Z,5.40
2019-03-20T00:35:51.747Z,5.30
2019-03-20T00:36:51.738Z,5.00
2019-03-20T00:37:51.725Z,4.90
2019-03-20T00:38:51.757Z,5.00
2019-03-20T00:39:51.718Z,4.90
2019-03-20T00:40:51.748Z,4.50
2019-03-20T00:41:51.685Z,4.60
2019-03-20T00:42:51.670Z,4.50
2019-03-20T00:43:51.656Z,5.10
2019-03-20T00:44:51.644Z,4.70
2019-03-20T00:45:51.675Z,4.80
2019-03-20T00:46:51.638Z,5.00
2019-03-20T00:47:51.604Z,4.70
2019-03-20T00:48:51.596Z,4.80
2019-03-20T00:49:51.590Z,4.70
2019-03-20T00:50:51.575Z,4.40
2019-03-20T00:51:51.604Z,4.80
2019-03-20T00:52:51.573Z,5.00
2019-03-20T00:53:51.550Z,4.70
2019-03-20T00:54:51.532Z,4.80
2019-03-20T00:55:51.525Z,5.50
2019-03-20T00:56:51.514Z,4.90
2019-03-20T00:57:51.511Z,5.00
2019-03-20T00:58:51.520Z,4.90
2019-03-20T00:59:51.483Z,4.70
2019-03-20T01:00:51.463Z,4.60
2019-03-20T01:01:51.470Z,5.90
2019-03-20T01:02:51.468Z,5.40
2019-03-20T01:03:51.433Z,5.10
2019-03-20T01:04:51.453Z,5.00
2019-03-20T01:06:04.542Z,4.90
2019-03-20T01:06:51.421Z,5.00
2019-03-20T01:07:51.406Z,4.50
2019-03-20T01:08:51.433Z,4.90
2019-03-20T01:09:51.366Z,5.10
2019-03-20T01:10:51.356Z,4.90
2019-03-20T01:11:51.352Z,5.50
2019-03-20T01:12:51.351Z,5.60
2019-03-20T01:13:51.326Z,4.60
2019-03-20T01:14:51.442Z,5.50
2019-03-20T01:15:51.310Z,5.20
2019-03-20T01:16:51.287Z,5.10
2019-03-20T01:17:51.289Z,5.50
2019-03-20T01:18:51.273Z,5.10
2019-03-20T01:19:51.254Z,5.40
2019-03-20T01:20:51.297Z,5.20
2019-03-20T01:21:51.242Z,5.20
2019-03-20T01:22:51.227Z,5.40
2019-03-20T01:23:51.286Z,5.40
2019-03-20T01:24:51.219Z,5.30
2019-03-20T01:25:51.192Z,5.80
2019-03-20T01:26:51.188Z,5.40
2019-03-20T01:27:51.174Z,4.80
2019-03-20T01:28:51.159Z,5.00
2019-03-20T01:29:51.146Z,5.60
2019-03-20T01:30:51.186Z,5.40
2019-03-20T01:31:51.124Z,5.50
2019-03-20T01:32:51.117Z,5.20
2019-03-20T01:33:51.104Z,4.90
2019-03-20T01:34:51.094Z,5.30
2019-03-20T01:35:51.085Z,5.60
2019-03-20T01:37:04.859Z,5.50
2019-03-20T01:37:51.064Z,5.10
2019-03-20T01:38:51.066Z,5.50
2019-03-20T01:39:51.048Z,5.10
2019-03-20T01:40:51.050Z,5.60
2019-03-20T01:41:51.030Z,5.20
2019-03-20T01:42:51.056Z,5.60
2019-03-20T01:43:50.994Z,4.90
2019-03-20T01:44:51.009Z,5.80
2019-03-20T01:45:50.996Z,5.40
2019-03-20T01:46:50.965Z,5.60
2019-03-20T01:47:51.258Z,5.70
2019-03-20T01:48:50.967Z,5.50
2019-03-20T01:49:50.934Z,5.70
2019-03-20T01:50:50.920Z,5.50
2019-03-20T01:51:50.907Z,5.20
2019-03-20T01:52:50.895Z,5.50
2019-03-20T01:53:50.900Z,5.40
2019-03-20T01:54:50.892Z,5.40
2019-03-20T01:55:50.865Z,5.50
2019-03-20T01:56:50.851Z,5.40
2019-03-20T01:57:50.898Z,5.40
2019-03-20T01:58:50.837Z,5.50
2019-03-20T01:59:50.934Z,5.60
2019-03-20T02:00:50.821Z,5.40
2019-03-20T02:01:50.802Z,5.20
2019-03-20T02:02:50.798Z,5.20
2019-03-20T02:03:50.778Z,5.60
2019-03-20T02:04:50.770Z,5.70
2019-03-20T02:05:50.786Z,5.20
2019-03-20T02:06:50.744Z,5.20
2019-03-20T02:08:03.891Z,4.70
2019-03-20T02:08:50.803Z,5.40
2019-03-20T02:09:50.719Z,5.10
2019-03-20T02:10:50.710Z,4.70
2019-03-20T02:11:50.700Z,4.90
2019-03-20T02:12:50.684Z,5.00
2019-03-20T02:13:50.673Z,4.40
2019-03-20T02:14:50.660Z,5.20
2019-03-20T02:15:50.654Z,4.80
2019-03-20T02:16:50.657Z,5.30
2019-03-20T02:17:50.670Z,4.80
2019-03-20T02:18:50.616Z,4.70
2019-03-20T02:19:50.616Z,4.80
2019-03-20T02:20:50.590Z,4.90
2019-03-20T02:21:50.583Z,4.30
2019-03-20T02:22:50.573Z,4.60
2019-03-20T02:23:50.600Z,4.80
2019-03-20T02:24:50.564Z,5.00
2019-03-20T02:25:50.542Z,4.90
2019-03-20T02:26:51.269Z,4.40
2019-03-20T02:27:50.521Z,4.60
2019-03-20T02:28:50.510Z,4.60
2019-03-20T02:29:50.538Z,4.50
2019-03-20T02:30:50.483Z,4.50
2019-03-20T02:31:50.479Z,4.30
2019-03-20T02:32:50.481Z,4.80
2019-03-20T02:33:50.553Z,4.50
2019-03-20T02:34:50.449Z,4.30
2019-03-20T02:35:52.178Z,4.70
2019-03-20T02:36:50.423Z,4.80
2019-03-20T02:37:50.420Z,4.80
2019-03-20T02:39:03.656Z,4.80
2019-03-20T02:39:50.396Z,4.80
2019-03-20T02:40:50.426Z,4.30
2019-03-20T02:41:50.388Z,4.50
2019-03-20T02:42:50.387Z,4.60
2019-03-20T02:43:50.367Z,4.50
2019-03-20T02:44:50.360Z,5.10
2019-03-20T02:45:50.327Z,4.20
2019-03-20T02:46:50.325Z,4.50
2019-03-20T02:47:50.322Z,5.00
2019-03-20T02:48:50.316Z,4.20
2019-03-20T02:49:50.301Z,4.10
2019-03-20T02:50:50.277Z,4.20
2019-03-20T02:51:50.301Z,4.50
2019-03-20T02:52:50.363Z,4.30
2019-03-20T02:53:50.790Z,4.80
2019-03-20T02:54:50.787Z,4.50
2019-03-20T02:55:50.219Z,4.10
2019-03-20T02:56:50.211Z,4.60
2019-03-20T02:57:50.242Z,4.20
2019-03-20T02:58:50.202Z,4.50
2019-03-20T02:59:50.184Z,5.10
2019-03-20T03:00:50.168Z,4.30
2019-03-20T03:01:50.154Z,4.70
2019-03-20T03:02:50.154Z,4.20
2019-03-20T03:03:50.148Z,4.80
2019-03-20T03:04:50.123Z,4.60
2019-03-20T03:05:50.110Z,4.60
2019-03-20T03:06:50.106Z,4.60
2019-03-20T03:07:50.092Z,3.70
2019-03-20T03:08:50.101Z,4.40
2019-03-20T03:10:03.364Z,4.70
2019-03-20T03:10:50.065Z,4.40
2019-03-20T03:11:50.054Z,4.60
2019-03-20T03:12:50.043Z,5.10
2019-03-20T03:13:50.032Z,4.80
2019-03-20T03:14:50.154Z,4.40
2019-03-20T03:15:50.057Z,4.50
2019-03-20T03:16:50.816Z,3.90
2019-03-20T03:17:49.995Z,4.20
2019-03-20T03:18:49.985Z,4.30
2019-03-20T03:19:49.966Z,4.00
2019-03-20T03:20:49.974Z,4.40
2019-03-20T03:21:49.940Z,4.50
2019-03-20T03:22:49.937Z,4.50
2019-03-20T03:23:49.929Z,4.70
2019-03-20T03:24:49.909Z,4.20
2019-03-20T03:25:50.473Z,4.50
2019-03-20T03:26:49.886Z,4.30
2019-03-20T03:27:49.879Z,4.30
2019-03-20T03:28:49.874Z,4.40
2019-03-20T03:29:49.853Z,4.10
2019-03-20T03:30:49.864Z,4.20
2019-03-20T03:31:49.889Z,4.30
2019-03-20T03:32:49.833Z,4.70
2019-03-20T03:33:49.825Z,4.20
2019-03-20T03:34:49.827Z,4.70
2019-03-20T03:35:49.793Z,4.60
2019-03-20T03:36:49.789Z,4.30
2019-03-20T03:37:49.870Z,3.90
2019-03-20T03:38:49.811Z,4.20
2019-03-20T03:39:49.750Z,4.00
2019-03-20T03:41:03.618Z,4.70
2019-03-20T03:41:49.743Z,4.40
2019-03-20T03:42:49.750Z,4.00
2019-03-20T03:43:49.711Z,4.90
2019-03-20T03:44:49.706Z,4.10
2019-03-20T03:45:49.687Z,4.30
2019-03-20T03:46:49.684Z,4.70
2019-03-20T03:47:49.673Z,4.60
2019-03-20T03:48:49.692Z,4.20
2019-03-20T03:49:49.636Z,4.30
2019-03-20T03:50:49.632Z,4.20
2019-03-20T03:51:50.342Z,4.50
2019-03-20T03:52:49.610Z,4.70
2019-03-20T03:53:49.597Z,4.60
2019-03-20T03:54:49.597Z,4.70
2019-03-20T03:55:49.575Z,4.30
2019-03-20T03:56:49.561Z,4.90
2019-03-20T03:57:49.553Z,4.50
2019-03-20T03:58:49.544Z,4.40
2019-03-20T03:59:49.589Z,4.60
2019-03-20T04:00:49.561Z,4.50
2019-03-20T04:01:49.531Z,4.50
2019-03-20T04:02:49.520Z,5.10
2019-03-20T04:03:49.492Z,5.20
2019-03-20T04:04:49.525Z,5.50
2019-03-20T04:05:49.467Z,4.60
2019-03-20T04:06:49.462Z,4.70
2019-03-20T04:07:49.444Z,5.50
2019-03-20T04:08:49.436Z,4.80
2019-03-20T04:09:49.426Z,4.70
2019-03-20T04:10:49.437Z,5.20
2019-03-20T04:12:02.306Z,4.80
2019-03-20T04:12:49.417Z,4.80
2019-03-20T04:13:49.391Z,4.90
2019-03-20T04:14:49.377Z,5.50
2019-03-20T04:15:49.377Z,5.00
2019-03-20T04:16:49.356Z,4.70
2019-03-20T04:17:49.347Z,5.00
2019-03-20T04:18:49.378Z,5.40
2019-03-20T04:19:49.342Z,5.00
2019-03-20T04:20:49.332Z,5.20
2019-03-20T04:21:49.298Z,4.90
2019-03-20T04:22:49.391Z,6.10
2019-03-20T04:23:49.300Z,5.70
2019-03-20T04:24:49.267Z,5.10
2019-03-20T04:25:49.262Z,5.10
2019-03-20T04:26:49.257Z,5.00
2019-03-20T04:27:49.236Z,4.70
2019-03-20T04:28:49.223Z,4.90
2019-03-20T04:29:49.214Z,4.40
2019-03-20T04:30:49.201Z,5.10
2019-03-20T04:31:49.232Z,4.70
2019-03-20T04:32:49.180Z,4.90
2019-03-20T04:33:49.170Z,4.60
2019-03-20T04:34:49.166Z,5.40
2019-03-20T04:35:49.152Z,4.60
2019-03-20T04:36:49.141Z,4.40
2019-03-20T04:37:49.153Z,5.00
2019-03-20T04:38:49.122Z,4.80
2019-03-20T04:39:49.125Z,4.40
2019-03-20T04:40:49.113Z,4.00
2019-03-20T04:41:49.138Z,4.50
2019-03-20T04:43:00.951Z,4.60
2019-03-20T04:43:49.080Z,4.50
2019-03-20T04:44:49.175Z,4.10
2019-03-20T04:45:49.899Z,4.00
2019-03-20T04:46:49.047Z,4.10
2019-03-20T04:47:49.026Z,3.80
2019-03-20T04:48:49.062Z,3.90
2019-03-20T04:49:49.020Z,3.50
2019-03-20T04:50:48.990Z,3.60
2019-03-20T04:51:48.993Z,3.50
2019-03-20T04:52:48.969Z,3.90
2019-03-20T04:53:48.961Z,3.30
2019-03-20T04:54:48.953Z,3.50
2019-03-20T04:55:48.939Z,3.70
2019-03-20T04:56:48.957Z,3.60
2019-03-20T04:57:48.926Z,3.70
2019-03-20T04:58:48.907Z,3.70
2019-03-20T04:59:48.942Z,3.90
2019-03-20T05:00:48.883Z,3.50
2019-03-20T05:01:48.876Z,3.30
2019-03-20T05:02:48.871Z,3.60
2019-03-20T05:03:48.852Z,3.90
2019-03-20T05:04:48.840Z,4.30
2019-03-20T05:05:48.851Z,3.80
2019-03-20T05:06:58.268Z,3.30
2019-03-20T05:07:49.813Z,2.90
2019-03-20T05:08:49.389Z,3.10
2019-03-20T05:09:48.789Z,2.80
2019-03-20T05:10:48.791Z,2.80
2019-03-20T05:11:48.782Z,2.80
2019-03-20T05:12:48.766Z,2.90
2019-03-20T05:14:01.860Z,3.10
2019-03-20T05:14:48.738Z,3.10
2019-03-20T05:15:48.739Z,3.00
2019-03-20T05:16:48.766Z,3.10
2019-03-20T05:17:48.710Z,2.60
2019-03-20T05:18:48.717Z,3.10
2019-03-20T05:19:48.680Z,3.30
2019-03-20T05:20:49.422Z,3.30
2019-03-20T05:21:48.668Z,3.30
2019-03-20T05:22:48.669Z,3.30
2019-03-20T05:23:48.670Z,3.10
2019-03-20T05:24:48.666Z,3.20
2019-03-20T05:25:48.627Z,3.20
2019-03-20T05:26:48.608Z,2.90
2019-03-20T05:27:48.607Z,3.30
2019-03-20T05:28:48.588Z,3.10
2019-03-20T05:29:48.698Z,2.50
2019-03-20T05:30:49.423Z,2.60
2019-03-20T05:31:48.561Z,2.40
2019-03-20T05:32:48.589Z,2.60
2019-03-20T05:33:48.542Z,2.40
2019-03-20T05:34:48.564Z,2.10
2019-03-20T05:35:48.514Z,2.80
2019-03-20T05:36:48.513Z,2.60
2019-03-20T05:37:48.507Z,2.50
2019-03-20T05:38:48.528Z,2.40
2019-03-20T05:39:48.474Z,2.30
2019-03-20T05:40:48.544Z,2.30
2019-03-20T05:41:48.454Z,2.60
2019-03-20T05:42:48.447Z,2.20
2019-03-20T05:43:48.431Z,2.50
2019-03-20T05:45:01.181Z,2.50
2019-03-20T05:45:48.422Z,2.40
2019-03-20T05:46:48.425Z,2.40
2019-03-20T05:47:48.409Z,2.20
2019-03-20T05:48:48.377Z,2.20
2019-03-20T05:49:48.391Z,2.30
2019-03-20T05:50:48.642Z,2.50
2019-03-20T05:51:48.353Z,2.30
2019-03-20T05:52:48.386Z,2.30
2019-03-20T05:53:48.522Z,2.50
2019-03-20T05:54:48.319Z,2.40
2019-03-20T05:55:48.307Z,2.30
2019-03-20T05:56:48.324Z,2.60
2019-03-20T05:57:48.294Z,2.30
2019-03-20T05:58:48.270Z,3.20
2019-03-20T05:59:48.264Z,2.80
2019-03-20T06:00:48.250Z,2.90
2019-03-20T06:01:48.239Z,3.30
2019-03-20T06:02:48.238Z,2.80
2019-03-20T06:03:48.222Z,2.70
2019-03-20T06:04:48.206Z,2.50
2019-03-20T06:05:48.194Z,2.70
2019-03-20T06:06:48.190Z,2.90
2019-03-20T06:07:48.199Z,2.20
2019-03-20T06:08:48.171Z,2.20
2019-03-20T06:09:48.153Z,2.60
2019-03-20T06:10:48.161Z,2.50
2019-03-20T06:11:48.144Z,2.70
2019-03-20T06:12:48.132Z,2.40
2019-03-20T06:13:48.145Z,2.60
2019-03-20T06:14:48.101Z,2.50
2019-03-20T06:16:00.306Z,2.90
2019-03-20T06:16:48.078Z,2.90
2019-03-20T06:17:48.088Z,3.00
2019-03-20T06:18:48.136Z,3.50
2019-03-20T06:19:48.060Z,2.90
2019-03-20T06:20:48.043Z,2.90
2019-03-20T06:21:48.031Z,3.10
2019-03-20T06:22:48.020Z,3.00
2019-03-20T06:23:48.007Z,2.70
2019-03-20T06:24:48.028Z,3.00
2019-03-20T06:25:47.983Z,3.00
2019-03-20T06:26:47.985Z,2.70
2019-03-20T06:27:47.977Z,3.00
2019-03-20T06:28:47.948Z,2.90
2019-03-20T06:29:47.938Z,3.10
2019-03-20T06:30:47.953Z,2.70
2019-03-20T06:31:47.922Z,3.00
2019-03-20T06:32:47.925Z,2.80
2019-03-20T06:33:47.896Z,3.00
2019-03-20T06:34:48.988Z,2.90
2019-03-20T06:35:47.874Z,3.50
2019-03-20T06:36:47.905Z,3.50
2019-03-20T06:37:47.857Z,3.80
2019-03-20T06:38:47.863Z,3.10
2019-03-20T06:39:47.902Z,3.40
2019-03-20T06:40:47.822Z,3.20
2019-03-20T06:41:47.818Z,3.00
2019-03-20T06:42:47.928Z,3.70
2019-03-20T06:43:48.456Z,2.90
2019-03-20T06:44:47.785Z,3.70
2019-03-20T06:45:47.971Z,3.50
2019-03-20T06:48:01.114Z,4.20
2019-03-20T06:49:01.051Z,3.80
2019-03-20T06:50:01.261Z,3.50
2019-03-20T06:51:00.992Z,3.20
2019-03-20T06:52:00.985Z,3.40
2019-03-20T06:53:00.962Z,3.40
2019-03-20T06:54:01.027Z,3.70
2019-03-20T06:55:01.415Z,3.60
2019-03-20T06:56:00.981Z,3.30
2019-03-20T06:57:00.933Z,3.10
2019-03-20T06:58:00.924Z,3.20
2019-03-20T06:59:00.907Z,3.60
2019-03-20T07:00:00.904Z,3.10
2019-03-20T07:01:00.880Z,3.60
2019-03-20T07:02:00.871Z,3.40
2019-03-20T07:03:00.878Z,3.40
2019-03-20T07:04:02.282Z,3.20
2019-03-20T07:05:00.836Z,3.40
2019-03-20T07:06:00.959Z,3.40
2019-03-20T07:07:01.711Z,3.80
2019-03-20T07:08:01.706Z,3.50
2019-03-20T07:09:00.882Z,3.40
2019-03-20T07:10:00.781Z,3.30
2019-03-20T07:11:00.778Z,3.60
2019-03-20T07:12:00.782Z,3.60
2019-03-20T07:13:00.756Z,3.70
2019-03-20T07:14:00.738Z,3.40
2019-03-20T07:15:00.742Z,3.50
2019-03-20T07:16:00.760Z,4.00
2019-03-20T07:17:00.711Z,3.70
2019-03-20T07:18:07.749Z,3.50
2019-03-20T07:19:00.698Z,4.10
2019-03-20T07:20:00.695Z,4.00
2019-03-20T07:21:00.689Z,3.50
2019-03-20T07:22:00.667Z,3.80
2019-03-20T07:23:00.651Z,3.70
2019-03-20T07:24:00.643Z,4.20
2019-03-20T07:25:00.627Z,3.60
2019-03-20T07:26:00.615Z,3.30
2019-03-20T07:27:00.644Z,3.90
2019-03-20T07:28:00.614Z,3.80
2019-03-20T07:29:00.583Z,4.00
2019-03-20T07:30:00.575Z,4.10
2019-03-20T07:31:00.568Z,3.80
2019-03-20T07:32:00.546Z,3.40
2019-03-20T07:33:00.575Z,3.80
2019-03-20T07:34:01.231Z,3.80
2019-03-20T07:35:00.528Z,3.70
2019-03-20T07:36:00.504Z,3.60
2019-03-20T07:37:00.491Z,3.50
2019-03-20T07:38:00.523Z,3.80
2019-03-20T07:39:00.477Z,3.60
2019-03-20T07:40:00.487Z,3.60
2019-03-20T07:41:00.455Z,3.40
2019-03-20T07:42:00.513Z,3.60
2019-03-20T07:43:08.811Z,3.70
2019-03-20T07:44:01.464Z,3.60
2019-03-20T07:45:00.415Z,3.10
2019-03-20T07:46:00.487Z,3.00
2019-03-20T07:47:00.393Z,3.30
2019-03-20T07:48:00.413Z,3.30
2019-03-20T07:49:13.443Z,3.10
2019-03-20T07:50:00.384Z,2.90
2019-03-20T07:51:00.395Z,2.80
2019-03-20T07:52:03.124Z,2.70
2019-03-20T07:53:03.746Z,2.80
2019-03-20T07:54:00.657Z,2.60
2019-03-20T07:55:00.454Z,2.90
2019-03-20T07:56:00.489Z,2.70
2019-03-20T07:57:00.287Z,3.00
2019-03-20T07:58:00.295Z,2.90
2019-03-20T07:59:00.268Z,2.40
2019-03-20T08:00:00.362Z,2.50
2019-03-20T08:01:00.507Z,2.20
2019-03-20T08:02:00.313Z,2.20
2019-03-20T08:03:00.244Z,2.30
2019-03-20T08:04:00.272Z,2.30
2019-03-20T08:05:00.406Z,2.30
2019-03-20T08:06:00.243Z,2.20
2019-03-20T08:07:00.219Z,2.20
2019-03-20T08:08:07.198Z,2.40
2019-03-20T08:09:01.175Z,2.40
2019-03-20T08:10:00.408Z,2.10
2019-03-20T08:11:00.151Z,2.00
2019-03-20T08:12:00.178Z,2.20
2019-03-20T08:13:00.167Z,1.80
2019-03-20T08:14:00.102Z,1.70
2019-03-20T08:15:00.184Z,1.70
2019-03-20T08:16:00.100Z,2.00
2019-03-20T08:17:00.100Z,1.60
2019-03-20T08:18:00.148Z,2.00
2019-03-20T08:19:00.785Z,2.10
2019-03-20T08:21:15.103Z,2.20
2019-03-20T08:22:15.047Z,1.50
2019-03-20T08:23:15.141Z,1.80
2019-03-20T08:24:16.059Z,1.70
2019-03-20T08:25:16.019Z,2.10
2019-03-20T08:26:14.992Z,1.90
2019-03-20T08:27:15.031Z,1.60
2019-03-20T08:28:14.976Z,2.10
2019-03-20T08:29:14.960Z,1.90
2019-03-20T08:30:14.949Z,1.90
2019-03-20T08:31:14.947Z,1.90
2019-03-20T08:32:14.925Z,1.80
2019-03-20T08:33:15.036Z,2.00
2019-03-20T08:34:14.907Z,1.50
2019-03-20T08:35:14.893Z,1.80
2019-03-20T08:36:14.887Z,1.50
2019-03-20T08:37:14.875Z,1.50
2019-03-20T08:38:18.541Z,1.80
2019-03-20T08:39:14.886Z,1.70
2019-03-20T08:40:14.844Z,1.50
2019-03-20T08:41:14.830Z,1.30
2019-03-20T08:42:14.820Z,1.70
2019-03-20T08:43:14.807Z,1.50
2019-03-20T08:44:14.798Z,1.30
2019-03-20T08:45:14.791Z,1.70
2019-03-20T08:46:14.866Z,1.60
2019-03-20T08:47:15.506Z,1.50
2019-03-20T08:48:15.535Z,1.50
2019-03-20T08:49:14.773Z,1.50
2019-03-20T08:50:16.406Z,1.30
2019-03-20T08:51:26.453Z,1.30
2019-03-20T08:52:14.764Z,1.50
2019-03-20T08:53:14.783Z,1.30
2019-03-20T08:54:14.719Z,1.40
2019-03-20T08:55:14.726Z,1.60
2019-03-20T08:56:14.670Z,1.40
2019-03-20T08:57:14.660Z,1.40
2019-03-20T08:58:15.007Z,1.70
2019-03-20T08:59:14.736Z,1.60
2019-03-20T09:00:14.645Z,1.30
2019-03-20T09:01:14.643Z,1.50
2019-03-20T09:02:14.600Z,1.50
2019-03-20T09:03:14.609Z,1.30
2019-03-20T09:04:14.575Z,1.20
2019-03-20T09:05:14.587Z,1.20
2019-03-20T09:06:14.785Z,1.20
2019-03-20T09:07:14.789Z,1.40
2019-03-20T09:08:14.718Z,1.20
2019-03-20T09:09:14.701Z,1.20
2019-03-20T09:10:15.922Z,1.40
2019-03-20T09:11:15.075Z,1.20
2019-03-20T09:12:14.587Z,1.50
2019-03-20T09:13:14.486Z,1.60
2019-03-20T09:14:14.586Z,1.00
2019-03-20T09:15:34.316Z,1.00
2019-03-20T09:16:14.449Z,1.00
2019-03-20T09:17:14.485Z,1.10
2019-03-20T09:18:14.451Z,1.10
2019-03-20T09:19:14.441Z,1.10
2019-03-20T09:20:14.446Z,1.00
2019-03-20T09:21:14.413Z,1.40
2019-03-20T09:22:27.258Z,1.20
2019-03-20T09:23:14.382Z,1.00
2019-03-20T09:24:14.432Z,1.10
2019-03-20T09:25:14.353Z,1.00
2019-03-20T09:26:14.337Z,1.20
2019-03-20T09:27:14.376Z,1.20
2019-03-20T09:28:14.386Z,1.30
2019-03-20T09:29:18.528Z,1.20
2019-03-20T09:30:14.327Z,1.20
2019-03-20T09:31:14.348Z,1.00
2019-03-20T09:32:14.290Z,1.10
2019-03-20T09:33:14.270Z,1.20
2019-03-20T09:34:14.357Z,1.20
2019-03-20T09:35:14.246Z,1.20
2019-03-20T09:36:14.427Z,1.20
2019-03-20T09:37:14.230Z,1.10
2019-03-20T09:38:14.243Z,1.30
2019-03-20T09:39:14.201Z,1.30
2019-03-20T09:40:14.219Z,1.20
2019-03-20T09:41:14.187Z,1.00
2019-03-20T09:42:14.197Z,1.10
2019-03-20T09:43:14.156Z,1.00
2019-03-20T09:44:14.145Z,1.00
2019-03-20T09:45:14.315Z,1.00
2019-03-20T09:46:14.190Z,1.10
2019-03-20T09:47:14.125Z,1.10
2019-03-20T09:48:14.105Z,1.00
2019-03-20T09:49:14.089Z,1.00
2019-03-20T09:50:14.084Z,1.20
2019-03-20T09:51:14.155Z,1.20
2019-03-20T09:52:14.576Z,1.10
2019-03-20T09:53:26.517Z,0.80
2019-03-20T09:54:14.099Z,1.30
2019-03-20T09:55:14.026Z,1.10
2019-03-20T09:56:14.016Z,1.10
2019-03-20T09:57:14.073Z,1.10
2019-03-20T09:58:13.996Z,1.00
2019-03-20T09:59:13.987Z,1.00
2019-03-20T10:00:14.009Z,1.10
2019-03-20T10:01:14.049Z,1.10
2019-03-20T10:02:23.722Z,1.00
2019-03-20T10:03:13.940Z,1.30
2019-03-20T10:04:13.935Z,1.10
2019-03-20T10:05:13.938Z,1.00
2019-03-20T10:06:13.914Z,1.10
2019-03-20T10:07:13.899Z,1.00
2019-03-20T10:08:13.946Z,0.90
2019-03-20T10:09:13.890Z,1.20
2019-03-20T10:10:13.870Z,1.10
2019-03-20T10:11:13.853Z,1.00
2019-03-20T10:12:13.848Z,1.00
2019-03-20T10:13:13.870Z,1.20
2019-03-20T10:14:13.887Z,1.30
2019-03-20T10:15:13.833Z,1.30
2019-03-20T10:16:13.800Z,1.00
2019-03-20T10:17:13.808Z,1.20
2019-03-20T10:18:13.784Z,1.20
2019-03-20T10:19:13.807Z,1.20
2019-03-20T10:20:13.781Z,1.00
2019-03-20T10:21:13.747Z,1.50
2019-03-20T10:22:13.732Z,1.30
2019-03-20T10:23:13.727Z,1.30
2019-03-20T10:24:13.716Z,1.40
2019-03-20T10:25:13.730Z,1.30
2019-03-20T10:26:14.666Z,1.10
2019-03-20T10:27:13.697Z,1.40
2019-03-20T10:28:13.692Z,1.30
2019-03-20T10:29:13.660Z,1.40
2019-03-20T10:30:13.649Z,1.20
2019-03-20T10:31:13.657Z,1.30
2019-03-20T10:32:13.642Z,1.30
2019-03-20T10:33:26.712Z,1.20
2019-03-20T10:34:13.645Z,1.30
2019-03-20T10:35:13.623Z,1.30
2019-03-20T10:36:13.817Z,1.20
2019-03-20T10:37:13.673Z,1.40
2019-03-20T10:38:13.562Z,1.40
2019-03-20T10:39:13.709Z,1.20
2019-03-20T10:40:13.908Z,1.30
2019-03-20T10:41:14.797Z,1.40
2019-03-20T10:42:13.711Z,1.50
2019-03-20T10:43:13.517Z,1.30
2019-03-20T10:44:13.883Z,1.20
2019-03-20T10:45:13.642Z,1.30
2019-03-20T10:46:13.610Z,1.40
2019-03-20T10:47:13.607Z,1.20
2019-03-20T10:48:14.698Z,1.40
2019-03-20T10:49:13.737Z,1.20
2019-03-20T10:50:13.765Z,1.20
2019-03-20T10:51:13.761Z,1.20
2019-03-20T10:52:13.818Z,1.20
2019-03-20T10:53:13.473Z,1.00
2019-03-20T10:54:13.691Z,1.10
2019-03-20T10:55:13.415Z,1.30
2019-03-20T10:56:13.369Z,1.10
2019-03-20T10:57:13.390Z,1.20
2019-03-20T10:58:13.475Z,1.30
2019-03-20T10:59:13.354Z,1.20
2019-03-20T11:00:13.380Z,1.20
2019-03-20T11:01:13.378Z,1.10
2019-03-20T11:02:13.328Z,1.20
2019-03-20T11:03:14.062Z,1.30
2019-03-20T11:04:26.511Z,1.40
2019-03-20T11:05:13.392Z,1.30
2019-03-20T11:06:13.769Z,1.30
2019-03-20T11:07:13.279Z,1.40
2019-03-20T11:08:13.285Z,1.20
2019-03-20T11:09:18.091Z,1.30
2019-03-20T11:10:14.213Z,1.30
2019-03-20T11:11:13.233Z,1.20
2019-03-20T11:12:13.216Z,1.30
2019-03-20T11:13:13.193Z,1.40
2019-03-20T11:14:14.150Z,1.20
2019-03-20T11:15:13.159Z,1.50
2019-03-20T11:16:14.146Z,1.50
2019-03-20T11:17:13.222Z,1.20
2019-03-20T11:18:13.117Z,1.60
2019-03-20T11:19:13.113Z,1.50
2019-03-20T11:20:13.096Z,1.40
2019-03-20T11:21:13.083Z,1.60
2019-03-20T11:22:18.683Z,1.60
2019-03-20T11:23:14.595Z,1.40
2019-03-20T11:24:15.242Z,1.40
2019-03-20T11:25:14.075Z,1.60
2019-03-20T11:26:13.049Z,1.40
2019-03-20T11:27:13.129Z,1.70
2019-03-20T11:28:13.837Z,1.30
2019-03-20T11:29:13.645Z,1.60
2019-03-20T11:30:13.006Z,1.50
2019-03-20T11:31:13.087Z,1.60
2019-03-20T11:32:14.370Z,1.80
2019-03-20T11:33:12.980Z,1.60
2019-03-20T11:34:13.077Z,1.70
2019-03-20T11:35:26.799Z,1.80
2019-03-20T11:36:12.954Z,1.70
2019-03-20T11:37:12.939Z,1.40
2019-03-20T11:38:12.931Z,1.80
2019-03-20T11:39:12.913Z,1.50
2019-03-20T11:40:12.874Z,1.70
2019-03-20T11:41:12.871Z,1.50
2019-03-20T11:42:12.861Z,1.80
2019-03-20T11:43:12.846Z,1.60
2019-03-20T11:44:12.837Z,1.50
2019-03-20T11:45:12.829Z,1.80
2019-03-20T11:46:12.819Z,1.60
2019-03-20T11:47:12.807Z,1.80
2019-03-20T11:48:12.794Z,1.70
2019-03-20T11:49:12.782Z,1.80
2019-03-20T11:50:12.875Z,1.90
2019-03-20T11:51:12.813Z,1.50
2019-03-20T11:52:12.766Z,1.90
2019-03-20T11:53:12.734Z,1.70
2019-03-20T11:54:12.723Z,1.70
2019-03-20T11:55:12.713Z,1.60
2019-03-20T11:56:12.719Z,1.90
2019-03-20T11:57:12.706Z,1.60
2019-03-20T11:58:12.705Z,2.00
2019-03-20T11:59:12.667Z,1.70
2019-03-20T12:00:12.655Z,1.90
2019-03-20T12:01:12.652Z,2.00
2019-03-20T12:02:12.649Z,1.70
2019-03-20T12:03:12.661Z,1.90
2019-03-20T12:04:12.610Z,2.00
2019-03-20T12:05:12.600Z,2.00
2019-03-20T12:06:25.480Z,1.80
2019-03-20T12:07:12.626Z,2.20
2019-03-20T12:08:12.571Z,1.80
2019-03-20T12:09:12.610Z,2.00
2019-03-20T12:10:12.549Z,2.30
2019-03-20T12:11:12.539Z,2.10
2019-03-20T12:12:12.535Z,2.50
2019-03-20T12:13:12.588Z,2.40
2019-03-20T12:14:12.565Z,2.40
2019-03-20T12:15:12.729Z,1.90
2019-03-20T12:16:12.486Z,2.40
2019-03-20T12:17:12.474Z,1.80
2019-03-20T12:18:12.461Z,1.60
2019-03-20T12:19:12.446Z,1.80
2019-03-20T12:20:12.441Z,1.90
2019-03-20T12:21:12.442Z,1.30
2019-03-20T12:22:12.421Z,1.80
2019-03-20T12:23:12.410Z,1.80
2019-03-20T12:24:12.402Z,1.60
2019-03-20T12:25:12.403Z,1.90
2019-03-20T12:26:13.746Z,1.70
2019-03-20T12:27:15.267Z,1.70
2019-03-20T12:28:12.356Z,1.70
2019-03-20T12:29:12.342Z,1.70
2019-03-20T12:30:12.358Z,1.80
2019-03-20T12:31:12.318Z,1.90
2019-03-20T12:32:12.358Z,2.00
2019-03-20T12:33:12.296Z,1.90
2019-03-20T12:34:12.284Z,1.70
2019-03-20T12:35:12.271Z,1.70
2019-03-20T12:36:12.317Z,1.70
2019-03-20T12:37:25.311Z,1.90
2019-03-20T12:38:14.817Z,1.80
2019-03-20T12:39:12.244Z,1.60
2019-03-20T12:40:12.239Z,2.00
2019-03-20T12:41:12.292Z,1.70
2019-03-20T12:42:12.208Z,1.60
2019-03-20T12:43:12.323Z,1.80
2019-03-20T12:44:12.190Z,1.80
2019-03-20T12:45:12.166Z,1.60
2019-03-20T12:46:12.163Z,1.80
2019-03-20T12:47:12.189Z,1.80
2019-03-20T12:48:12.173Z,1.70
2019-03-20T12:49:12.121Z,1.80
2019-03-20T12:50:12.123Z,1.80
2019-03-20T12:51:12.103Z,2.00
2019-03-20T12:52:12.087Z,2.30
2019-03-20T12:53:12.085Z,2.00
2019-03-20T12:54:12.110Z,1.80
2019-03-20T12:55:12.059Z,2.20
2019-03-20T12:56:12.044Z,2.00
2019-03-20T12:57:12.037Z,2.00
2019-03-20T12:58:12.053Z,2.10
2019-03-20T12:59:12.729Z,2.20
2019-03-20T13:00:12.078Z,1.90
2019-03-20T13:01:11.993Z,2.10
2019-03-20T13:02:11.989Z,2.20
2019-03-20T13:04:15.008Z,2.10
2019-03-20T13:05:13.917Z,2.50
2019-03-20T13:06:15.741Z,2.60
2019-03-20T13:07:12.573Z,2.60
2019-03-20T13:08:26.398Z,2.70
2019-03-20T13:09:11.908Z,2.60
2019-03-20T13:10:14.773Z,2.50
2019-03-20T13:11:11.907Z,2.50
2019-03-20T13:12:12.020Z,2.50
2019-03-20T13:13:11.953Z,2.50
2019-03-20T13:14:11.861Z,2.70
2019-03-20T13:15:11.847Z,2.50
2019-03-20T13:16:11.831Z,2.60
2019-03-20T13:17:11.824Z,2.20
2019-03-20T13:18:11.821Z,2.80
2019-03-20T13:19:11.811Z,2.90
2019-03-20T13:20:11.784Z,2.70
2019-03-20T13:21:11.808Z,2.60
2019-03-20T13:22:11.832Z,2.20